createdAt,value
2019-02-27T00:01:16.747Z,8.47
2019-02-27T00:03:44.168Z,16.77
2019-02-27T00:06:12.940Z,10.80
2019-02-27T00:08:42.188Z,8.13
2019-02-27T00:11:12.388Z,10.23
2019-02-27T00:13:39.950Z,12.00
2019-02-27T00:16:10.856Z,8.83
2019-02-27T00:18:37.450Z,10.87
2019-02-27T00:21:10.159Z,8.70
2019-02-27T00:23:35.039Z,9.20
2019-02-27T00:26:02.555Z,13.30
2019-02-27T00:28:30.120Z,9.63
2019-02-27T00:30:57.727Z,9.03
2019-02-27T00:33:28.469Z,8.27
2019-02-27T00:35:55.823Z,11.03
2019-02-27T00:38:25.279Z,9.77
2019-02-27T00:40:53.080Z,8.27
2019-02-27T00:43:20.655Z,9.00
2019-02-27T00:45:48.203Z,14.33
2019-02-27T00:48:15.687Z,10.60
2019-02-27T00:50:43.671Z,10.70
2019-02-27T00:53:11.471Z,8.43
2019-02-27T00:55:39.529Z,9.20
2019-02-27T00:58:07.152Z,10.10
2019-02-27T01:00:38.998Z,11.73
2019-02-27T01:03:04.665Z,11.43
2019-02-27T01:05:32.601Z,12.00
2019-02-27T01:08:00.770Z,14.07
2019-02-27T01:10:28.847Z,9.67
2019-02-27T01:12:58.199Z,12.80
2019-02-27T01:15:27.241Z,8.97
2019-02-27T01:17:57.552Z,8.17
2019-02-27T01:20:25.135Z,10.13
2019-02-27T01:22:52.674Z,10.40
2019-02-27T01:25:22.993Z,12.30
2019-02-27T01:27:51.544Z,10.80
2019-02-27T01:30:19.427Z,9.30
2019-02-27T01:32:47.177Z,10.10
2019-02-27T01:35:17.511Z,13.47
2019-02-27T01:37:44.698Z,12.03
2019-02-27T01:40:17.228Z,17.33
2019-02-27T01:42:42.614Z,10.07
2019-02-27T01:45:12.465Z,12.73
2019-02-27T01:47:40.239Z,11.57
2019-02-27T01:50:30.922Z,17.60
2019-02-27T01:52:59.103Z,9.47
2019-02-27T01:55:26.979Z,12.17
2019-02-27T01:57:54.816Z,11.73
2019-02-27T02:00:23.871Z,10.33
2019-02-27T02:02:51.563Z,11.63
2019-02-27T02:05:19.048Z,11.03
2019-02-27T02:07:47.428Z,10.70
2019-02-27T02:10:15.138Z,10.70
2019-02-27T02:12:43.249Z,9.70
2019-02-27T02:15:15.485Z,12.27
2019-02-27T02:18:36.242Z,11.93
2019-02-27T02:21:35.826Z,9.47
2019-02-27T02:25:06.207Z,8.80
2019-02-27T02:28:12.119Z,9.77
2019-02-27T02:31:11.006Z,8.93
2019-02-27T02:34:06.931Z,8.53
2019-02-27T02:37:03.257Z,8.00
2019-02-27T02:40:16.189Z,8.80
2019-02-27T02:43:16.026Z,10.30
2019-02-27T02:45:50.115Z,9.27
2019-02-27T02:48:27.683Z,8.97
2019-02-27T02:51:34.831Z,9.80
2019-02-27T02:54:37.567Z,11.03
2019-02-27T02:57:43.184Z,16.27
2019-02-27T03:01:13.926Z,11.53
2019-02-27T03:04:12.970Z,13.40
2019-02-27T03:07:07.176Z,12.63
2019-02-27T03:10:07.440Z,12.70
2019-02-27T03:13:20.587Z,11.17
2019-02-27T03:16:29.958Z,10.07
2019-02-27T03:19:41.786Z,8.40
2019-02-27T03:22:44.014Z,8.40
2019-02-27T03:25:51.459Z,8.53
2019-02-27T03:29:16.839Z,9.13
2019-02-27T03:32:15.063Z,9.83
2019-02-27T03:35:29.150Z,10.77
2019-02-27T03:38:29.823Z,8.63
2019-02-27T03:41:14.302Z,7.20
2019-02-27T03:44:28.751Z,9.33
2019-02-27T03:47:15.437Z,7.63
2019-02-27T03:50:06.403Z,10.13
2019-02-27T03:53:01.252Z,7.13
2019-02-27T03:55:58.325Z,6.40
2019-02-27T03:58:48.876Z,8.60
2019-02-27T04:01:56.723Z,6.20
2019-02-27T04:05:14.929Z,7.20
2019-02-27T04:08:45.371Z,9.97
2019-02-27T04:11:13.563Z,6.30
2019-02-27T04:13:41.238Z,10.60
2019-02-27T04:16:09.628Z,12.53
2019-02-27T04:18:36.091Z,13.47
2019-02-27T04:21:03.868Z,13.93
2019-02-27T04:23:31.722Z,15.77
2019-02-27T04:26:05.429Z,15.63
2019-02-27T04:28:29.944Z,10.90
2019-02-27T04:30:58.229Z,14.13
2019-02-27T04:33:25.783Z,10.57
2019-02-27T04:35:53.290Z,10.47
2019-02-27T04:38:21.360Z,21.70
2019-02-27T04:40:49.803Z,18.00
2019-02-27T04:43:17.838Z,15.23
2019-02-27T04:45:46.890Z,10.20
2019-02-27T04:48:15.147Z,12.07
2019-02-27T04:50:44.139Z,12.83
2019-02-27T04:53:12.387Z,16.03
2019-02-27T04:55:42.710Z,11.73
2019-02-27T04:58:11.574Z,10.63
2019-02-27T05:00:39.192Z,8.87
2019-02-27T05:03:10.982Z,9.80
2019-02-27T05:05:41.435Z,8.80
2019-02-27T05:08:10.059Z,10.40
2019-02-27T05:10:38.211Z,11.40
2019-02-27T05:13:06.943Z,15.13
2019-02-27T05:15:38.917Z,12.17
2019-02-27T05:18:04.550Z,8.93
2019-02-27T05:20:32.342Z,9.40
2019-02-27T05:23:00.945Z,11.80
2019-02-27T05:25:28.695Z,12.30
2019-02-27T05:27:56.468Z,13.27
2019-02-27T05:30:24.547Z,14.10
2019-02-27T05:32:52.477Z,12.60
2019-02-27T05:35:23.329Z,12.33
2019-02-27T05:37:49.766Z,12.20
2019-02-27T05:40:17.854Z,14.67
2019-02-27T05:42:45.702Z,11.43
2019-02-27T05:45:13.551Z,11.53
2019-02-27T05:47:44.841Z,16.50
2019-02-27T05:50:11.298Z,11.70
2019-02-27T05:52:38.890Z,15.27
2019-02-27T05:55:07.082Z,13.70
2019-02-27T05:57:34.666Z,16.00
2019-02-27T06:00:03.385Z,19.67
2019-02-27T06:02:31.011Z,28.77
2019-02-27T06:04:59.207Z,23.73
2019-02-27T06:07:27.461Z,16.70
2019-02-27T06:09:55.052Z,11.30
2019-02-27T06:12:22.579Z,10.57
2019-02-27T06:14:54.826Z,13.73
2019-02-27T06:17:20.099Z,10.30
2019-02-27T06:19:47.954Z,11.40
2019-02-27T06:22:15.748Z,11.60
2019-02-27T06:24:45.601Z,10.00
2019-02-27T06:27:12.966Z,10.10
2019-02-27T06:29:40.470Z,19.23
2019-02-27T06:32:12.136Z,23.07
2019-02-27T06:34:37.666Z,14.10
2019-02-27T06:37:05.233Z,19.60
2019-02-27T06:39:34.428Z,19.70
2019-02-27T06:42:03.019Z,17.67
2019-02-27T06:44:30.634Z,13.20
2019-02-27T06:46:58.121Z,13.73
2019-02-27T06:49:26.406Z,14.00
2019-02-27T06:51:54.190Z,16.90
2019-02-27T06:54:22.010Z,15.93
2019-02-27T06:56:49.604Z,18.73
2019-02-27T06:59:18.211Z,16.33
2019-02-27T07:01:47.500Z,14.63
2019-02-27T07:04:15.595Z,14.97
2019-02-27T07:06:43.055Z,15.10
2019-02-27T07:09:11.618Z,11.10
2019-02-27T07:11:39.688Z,11.97
2019-02-27T07:14:07.240Z,11.80
2019-02-27T07:16:35.083Z,10.40
2019-02-27T07:19:02.981Z,11.93
2019-02-27T07:21:32.808Z,10.40
2019-02-27T07:24:00.270Z,13.10
2019-02-27T07:26:28.097Z,16.27
2019-02-27T07:28:55.992Z,13.80
2019-02-27T07:31:23.938Z,13.87
2019-02-27T07:33:51.561Z,14.30
2019-02-27T07:36:19.162Z,13.40
2019-02-27T07:38:46.975Z,12.90
2019-02-27T07:41:17.478Z,14.80
2019-02-27T07:43:46.527Z,17.70
2019-02-27T07:46:14.688Z,12.23
2019-02-27T07:48:42.599Z,13.97
2019-02-27T07:51:10.123Z,13.43
2019-02-27T07:53:38.071Z,13.17
2019-02-27T07:56:05.783Z,14.60
2019-02-27T07:58:34.567Z,14.87
2019-02-27T08:01:04.483Z,13.43
2019-02-27T08:03:31.750Z,15.67
2019-02-27T08:06:02.442Z,16.13
2019-02-27T08:08:32.060Z,14.60
2019-02-27T08:10:59.707Z,13.50
2019-02-27T08:13:29.686Z,16.10
2019-02-27T08:15:58.131Z,14.87
2019-02-27T08:18:30.229Z,13.37
2019-02-27T08:20:56.072Z,15.50
2019-02-27T08:23:23.905Z,14.33
2019-02-27T08:25:52.318Z,15.03
2019-02-27T08:28:19.826Z,15.40
2019-02-27T08:30:47.446Z,14.77
2019-02-27T08:33:15.450Z,16.10
2019-02-27T08:35:43.010Z,16.77
2019-02-27T08:38:10.873Z,13.60
2019-02-27T08:40:38.638Z,14.77
2019-02-27T08:43:06.752Z,18.00
2019-02-27T08:45:34.386Z,15.27
2019-02-27T08:48:01.903Z,18.00
2019-02-27T08:50:31.640Z,14.60
2019-02-27T08:52:59.645Z,20.93
2019-02-27T08:55:27.888Z,16.17
2019-02-27T08:57:57.018Z,15.50
2019-02-27T09:00:24.732Z,16.30
2019-02-27T09:02:52.423Z,15.60
2019-02-27T09:05:20.975Z,13.97
2019-02-27T09:07:49.956Z,14.60
2019-02-27T09:10:18.005Z,15.07
2019-02-27T09:12:48.801Z,18.57
2019-02-27T09:15:15.563Z,15.27
2019-02-27T09:17:43.378Z,16.90
2019-02-27T09:20:12.658Z,16.13
2019-02-27T09:22:40.199Z,15.43
2019-02-27T09:25:08.082Z,14.07
2019-02-27T09:27:36.026Z,13.77
2019-02-27T09:30:05.155Z,15.43
2019-02-27T09:32:32.930Z,15.03
2019-02-27T09:35:01.085Z,15.33
2019-02-27T09:37:28.638Z,12.63
2019-02-27T09:39:56.182Z,14.00
2019-02-27T09:42:24.810Z,14.70
2019-02-27T09:44:52.614Z,20.23
2019-02-27T09:47:20.098Z,14.50
2019-02-27T09:49:48.274Z,14.00
2019-02-27T09:52:15.800Z,13.80
2019-02-27T09:54:46.769Z,13.40
2019-02-27T09:57:13.646Z,13.53
2019-02-27T09:59:41.592Z,12.67
2019-02-27T10:02:12.416Z,13.17
2019-02-27T10:04:40.535Z,13.90
2019-02-27T10:07:08.657Z,14.70
2019-02-27T10:09:36.505Z,13.93
2019-02-27T10:12:04.706Z,13.87
2019-02-27T10:14:32.203Z,14.70
2019-02-27T10:16:59.783Z,14.90
2019-02-27T10:19:27.777Z,14.70
2019-02-27T10:21:55.951Z,14.67
2019-02-27T10:24:23.818Z,14.53
2019-02-27T10:26:53.603Z,20.00
2019-02-27T10:29:20.660Z,14.67
2019-02-27T10:31:48.843Z,14.57
2019-02-27T10:34:17.631Z,14.90
2019-02-27T10:36:48.560Z,15.50
2019-02-27T10:39:16.418Z,17.00
2019-02-27T10:41:44.927Z,14.83
2019-02-27T10:44:13.175Z,16.33
2019-02-27T10:46:41.206Z,17.77
2019-02-27T10:49:08.996Z,13.67
2019-02-27T10:51:36.842Z,12.97
2019-02-27T10:54:05.532Z,13.73
2019-02-27T10:56:33.746Z,12.70
2019-02-27T10:59:01.826Z,12.50
2019-02-27T11:01:29.642Z,13.67
2019-02-27T11:03:57.082Z,13.67
2019-02-27T11:06:33.543Z,14.73
2019-02-27T11:08:54.368Z,15.90
2019-02-27T11:11:21.974Z,13.80
2019-02-27T11:13:51.740Z,15.17
2019-02-27T11:16:21.360Z,13.83
2019-02-27T11:18:49.443Z,13.73
2019-02-27T11:21:16.951Z,13.37
2019-02-27T11:23:44.511Z,13.10
2019-02-27T11:26:12.128Z,13.50
2019-02-27T11:28:39.761Z,13.67
2019-02-27T11:31:08.457Z,23.97
2019-02-27T11:33:37.280Z,15.50
2019-02-27T11:36:05.673Z,18.40
2019-02-27T11:38:34.195Z,13.80
2019-02-27T11:41:01.758Z,16.60
2019-02-27T11:43:29.619Z,14.50
2019-02-27T11:45:58.142Z,15.87
2019-02-27T11:48:26.742Z,14.80
2019-02-27T11:50:54.569Z,16.63
2019-02-27T11:53:22.363Z,14.77
2019-02-27T11:55:50.523Z,19.90
2019-02-27T11:58:18.385Z,17.47
2019-02-27T12:00:46.153Z,17.80
2019-02-27T12:03:14.031Z,17.77
2019-02-27T12:05:41.930Z,17.07
2019-02-27T12:08:11.374Z,16.73
2019-02-27T12:10:39.043Z,19.53
2019-02-27T12:13:06.622Z,20.07
2019-02-27T12:15:34.106Z,17.37
2019-02-27T12:18:02.114Z,18.80
2019-02-27T12:20:29.718Z,20.17
2019-02-27T12:22:57.683Z,19.77
2019-02-27T12:25:29.048Z,20.60
2019-02-27T12:27:55.954Z,16.33
2019-02-27T12:30:24.246Z,17.37
2019-02-27T12:32:55.715Z,21.40
2019-02-27T12:35:25.987Z,17.60
2019-02-27T12:37:53.787Z,19.13
2019-02-27T12:40:24.940Z,17.90
2019-02-27T12:42:51.240Z,18.87
2019-02-27T12:45:20.649Z,30.40
2019-02-27T12:47:49.443Z,33.43
2019-02-27T12:50:18.718Z,18.10
2019-02-27T12:52:48.141Z,17.77
2019-02-27T12:55:16.488Z,18.23
2019-02-27T12:57:44.084Z,16.30
2019-02-27T13:00:14.691Z,21.97
2019-02-27T13:02:42.535Z,16.40
2019-02-27T13:05:11.309Z,17.93
2019-02-27T13:07:39.455Z,15.30
2019-02-27T13:10:09.323Z,17.70
2019-02-27T13:12:37.323Z,15.90
2019-02-27T13:15:07.358Z,15.00
2019-02-27T13:17:35.709Z,37.90
2019-02-27T13:20:04.320Z,17.30
2019-02-27T13:22:32.255Z,17.57
2019-02-27T13:25:00.365Z,15.73
2019-02-27T13:27:27.997Z,15.70
2019-02-27T13:30:08.463Z,15.20
2019-02-27T13:32:27.327Z,14.70
2019-02-27T13:34:55.022Z,14.30
2019-02-27T13:37:22.610Z,13.50
2019-02-27T13:39:50.403Z,14.03
2019-02-27T13:42:19.309Z,12.67
2019-02-27T13:44:47.136Z,15.97
2019-02-27T13:47:14.614Z,17.30
2019-02-27T13:49:42.364Z,19.53
2019-02-27T13:52:12.751Z,15.87
2019-02-27T13:54:39.862Z,16.80
2019-02-27T13:57:07.626Z,14.43
2019-02-27T13:59:35.882Z,15.33
2019-02-27T14:02:04.812Z,12.30
2019-02-27T14:04:32.445Z,15.63
2019-02-27T14:07:00.265Z,15.10
2019-02-27T14:09:28.075Z,14.03
2019-02-27T14:11:58.396Z,14.37
2019-02-27T14:14:25.647Z,15.10
2019-02-27T14:16:54.338Z,19.83
2019-02-27T14:19:23.889Z,16.77
2019-02-27T14:21:51.886Z,15.43
2019-02-27T14:24:20.607Z,16.33
2019-02-27T14:26:48.842Z,18.23
2019-02-27T14:29:16.686Z,18.20
2019-02-27T14:31:44.448Z,15.33
2019-02-27T14:34:11.995Z,22.00
2019-02-27T14:36:42.396Z,15.33
2019-02-27T14:39:11.090Z,17.40
2019-02-27T14:41:39.215Z,16.80
2019-02-27T14:44:06.798Z,36.77
2019-02-27T14:46:34.701Z,21.20
2019-02-27T14:49:02.832Z,14.70
2019-02-27T14:51:30.346Z,16.20
2019-02-27T14:53:57.912Z,15.83
2019-02-27T14:56:25.779Z,15.37
2019-02-27T14:58:56.589Z,13.37
2019-02-27T15:01:22.689Z,15.70
2019-02-27T15:03:51.111Z,14.50
2019-02-27T15:06:19.383Z,22.97
2019-02-27T15:08:57.436Z,17.93
2019-02-27T15:11:17.518Z,15.80
2019-02-27T15:13:45.053Z,17.10
2019-02-27T15:16:15.356Z,19.80
2019-02-27T15:18:42.504Z,18.40
2019-02-27T15:21:13.019Z,16.93
2019-02-27T15:23:40.314Z,16.63
2019-02-27T15:26:08.602Z,16.53
2019-02-27T15:28:48.354Z,17.20
2019-02-27T15:31:18.172Z,17.30
2019-02-27T15:33:47.502Z,17.20
2019-02-27T15:36:15.411Z,24.13
2019-02-27T15:38:43.511Z,18.97
2019-02-27T15:41:12.395Z,14.20
2019-02-27T15:43:39.977Z,12.90
2019-02-27T15:46:07.603Z,17.50
2019-02-27T15:48:38.069Z,15.43
2019-02-27T15:51:04.888Z,13.13
2019-02-27T15:53:32.359Z,12.97
2019-02-27T15:56:00.106Z,12.87
2019-02-27T15:58:28.054Z,12.93
2019-02-27T16:00:56.652Z,12.67
2019-02-27T16:03:25.389Z,13.63
2019-02-27T16:05:55.729Z,16.23
2019-02-27T16:08:23.986Z,13.33
2019-02-27T16:10:55.112Z,13.73
2019-02-27T16:13:22.429Z,13.03
2019-02-27T16:15:50.623Z,14.03
2019-02-27T16:18:18.791Z,14.00
2019-02-27T16:20:46.981Z,15.33
2019-02-27T16:23:16.706Z,15.30
2019-02-27T16:25:52.889Z,14.00
2019-02-27T16:28:17.966Z,15.13
2019-02-27T16:30:45.834Z,15.23
2019-02-27T16:33:14.019Z,19.23
2019-02-27T16:35:42.973Z,26.33
2019-02-27T16:38:13.048Z,16.27
2019-02-27T16:40:40.675Z,20.13
2019-02-27T16:43:10.325Z,17.53
2019-02-27T16:45:37.733Z,18.60
2019-02-27T16:48:05.793Z,16.60
2019-02-27T16:50:33.721Z,17.17
2019-02-27T16:53:01.848Z,13.93
2019-02-27T16:55:29.863Z,20.40
2019-02-27T16:57:57.938Z,14.60
2019-02-27T17:00:26.790Z,17.90
2019-02-27T17:02:54.317Z,31.40
2019-02-27T17:05:23.607Z,53.47
2019-02-27T17:07:51.766Z,35.67
2019-02-27T17:10:21.873Z,35.57
2019-02-27T17:12:49.520Z,30.97
2019-02-27T17:15:17.175Z,42.30
2019-02-27T17:17:45.046Z,31.07
2019-02-27T17:20:14.177Z,26.33
2019-02-27T17:22:41.663Z,32.07
2019-02-27T17:25:10.088Z,30.73
2019-02-27T17:27:37.722Z,28.37
2019-02-27T17:30:11.562Z,26.40
2019-02-27T17:32:39.410Z,27.50
2019-02-27T17:35:07.310Z,32.07
2019-02-27T17:37:37.382Z,18.87
2019-02-27T17:43:00.087Z,22.00
2019-02-27T17:45:30.424Z,22.40
2019-02-27T17:48:01.687Z,20.30
2019-02-27T17:50:33.783Z,20.60
2019-02-27T17:53:01.835Z,29.17
2019-02-27T17:55:29.625Z,24.80
2019-02-27T17:57:58.600Z,25.53
2019-02-27T18:00:35.646Z,27.60
2019-02-27T18:03:05.009Z,23.33
2019-02-27T18:05:35.934Z,20.43
2019-02-27T18:08:07.204Z,27.57
2019-02-27T18:10:37.576Z,19.30
2019-02-27T18:13:05.187Z,21.10
2019-02-27T18:15:33.108Z,26.20
2019-02-27T18:18:00.694Z,20.67
2019-02-27T18:20:28.980Z,21.70
2019-02-27T18:23:10.131Z,23.50
2019-02-27T18:25:41.169Z,26.60
2019-02-27T18:28:07.172Z,23.77
2019-02-27T18:30:35.078Z,26.20
2019-02-27T18:33:06.006Z,23.30
2019-02-27T18:35:35.876Z,21.77
2019-02-27T18:38:03.789Z,21.00
2019-02-27T18:40:31.979Z,21.67
2019-02-27T18:42:59.875Z,25.27
2019-02-27T18:45:29.778Z,25.83
2019-02-27T18:47:58.659Z,19.30
2019-02-27T18:50:26.896Z,21.37
2019-02-27T18:52:54.891Z,22.57
2019-02-27T18:55:22.487Z,23.23
2019-02-27T18:57:50.074Z,23.17
2019-02-27T19:00:20.609Z,17.73
2019-02-27T19:02:51.939Z,22.07
2019-02-27T19:05:18.600Z,23.03
2019-02-27T19:07:46.671Z,21.13
2019-02-27T19:10:15.092Z,22.70
2019-02-27T19:12:43.286Z,21.80
2019-02-27T19:15:12.625Z,21.53
2019-02-27T19:17:40.667Z,17.13
2019-02-27T19:20:09.641Z,16.03
2019-02-27T19:22:37.558Z,19.60
2019-02-27T19:25:05.547Z,20.57
2019-02-27T19:27:37.557Z,21.70
2019-02-27T19:30:07.330Z,20.47
2019-02-27T19:32:35.129Z,18.20
2019-02-27T19:35:03.144Z,28.20
2019-02-27T19:37:31.172Z,24.23
2019-02-27T19:39:59.311Z,29.30
2019-02-27T19:42:26.795Z,26.27
2019-02-27T19:44:54.958Z,35.80
2019-02-27T19:47:24.823Z,23.10
2019-02-27T19:49:52.428Z,23.93
2019-02-27T19:52:20.110Z,48.17
2019-02-27T19:54:51.512Z,57.93
2019-02-27T19:57:17.367Z,40.07
2019-02-27T20:03:20.042Z,24.40
2019-02-27T20:05:50.424Z,23.47
2019-02-27T20:08:17.082Z,14.27
2019-02-27T20:10:44.877Z,14.00
2019-02-27T20:13:13.081Z,18.97
2019-02-27T20:15:42.820Z,15.13
2019-02-27T20:18:10.849Z,18.13
2019-02-27T20:20:40.940Z,17.90
2019-02-27T20:23:08.212Z,16.40
2019-02-27T20:25:36.167Z,14.60
2019-02-27T20:28:04.600Z,16.87
2019-02-27T20:30:32.195Z,17.93
2019-02-27T20:33:02.601Z,18.50
2019-02-27T20:35:30.025Z,16.97
2019-02-27T20:37:58.346Z,18.27
2019-02-27T20:40:27.663Z,17.53
2019-02-27T20:42:55.630Z,16.40
2019-02-27T20:45:23.231Z,22.53
2019-02-27T20:47:50.960Z,15.30
2019-02-27T20:50:39.083Z,18.60
2019-02-27T20:53:07.413Z,17.50
2019-02-27T20:55:35.049Z,60.13
2019-02-27T20:58:02.791Z,28.57
2019-02-27T21:00:36.065Z,21.30
2019-02-27T21:03:02.467Z,18.70
2019-02-27T21:05:30.021Z,14.50
2019-02-27T21:08:02.086Z,17.67
2019-02-27T21:10:27.487Z,22.60
2019-02-27T21:12:55.359Z,21.33
2019-02-27T21:15:24.787Z,14.57
2019-02-27T21:17:52.335Z,15.87
2019-02-27T21:20:20.119Z,15.27
2019-02-27T21:22:48.004Z,13.20
2019-02-27T21:25:15.871Z,17.10
2019-02-27T21:27:43.766Z,34.03
2019-02-27T21:30:17.743Z,16.40
2019-02-27T21:32:43.130Z,22.63
2019-02-27T21:35:11.131Z,15.80
2019-02-27T21:37:44.588Z,16.03
2019-02-27T21:40:09.051Z,15.93
2019-02-27T21:42:36.879Z,16.90
2019-02-27T21:45:05.478Z,11.47
2019-02-27T21:47:34.614Z,17.00
2019-02-27T21:50:03.633Z,15.43
2019-02-27T21:52:32.839Z,14.00
2019-02-27T21:55:01.159Z,12.23
2019-02-27T21:57:29.092Z,15.10
2019-02-27T21:59:57.050Z,9.80
2019-02-27T22:02:27.241Z,12.97
2019-02-27T22:04:54.787Z,14.30
2019-02-27T22:07:22.271Z,14.63
2019-02-27T22:09:50.723Z,15.73
2019-02-27T22:12:18.942Z,14.50
2019-02-27T22:14:48.542Z,14.37
2019-02-27T22:17:16.262Z,16.87
2019-02-27T22:19:44.513Z,14.97
2019-02-27T22:22:12.215Z,15.77
2019-02-27T22:24:40.001Z,12.97
2019-02-27T22:27:09.167Z,14.40
2019-02-27T22:29:37.897Z,13.00
2019-02-27T22:32:05.509Z,15.00
2019-02-27T22:34:33.430Z,16.10
2019-02-27T22:37:01.586Z,14.57
2019-02-27T22:39:31.618Z,12.50
2019-02-27T22:41:58.586Z,15.20
2019-02-27T22:44:29.247Z,12.57
2019-02-27T22:46:56.519Z,12.00
2019-02-27T22:49:24.680Z,12.17
2019-02-27T22:51:52.577Z,14.03
2019-02-27T22:54:21.905Z,11.60
2019-02-27T22:56:51.575Z,11.27
2019-02-27T22:59:19.417Z,10.97
2019-02-27T23:01:52.505Z,14.60
2019-02-27T23:04:20.530Z,14.07
2019-02-27T23:06:48.398Z,12.37
2019-02-27T23:09:16.718Z,13.07
2019-02-27T23:11:45.174Z,14.63
2019-02-27T23:14:12.969Z,10.87
2019-02-27T23:16:40.873Z,10.37
2019-02-27T23:19:12.165Z,10.90
2019-02-27T23:21:38.107Z,9.10
2019-02-27T23:24:07.176Z,10.03
2019-02-27T23:26:36.086Z,14.17
2019-02-27T23:29:05.554Z,9.57
2019-02-27T23:31:33.557Z,12.37
2019-02-27T23:34:01.136Z,11.03
2019-02-27T23:36:28.945Z,13.83
2019-02-27T23:38:56.611Z,9.30
2019-02-27T23:41:24.429Z,13.27
2019-02-27T23:43:52.549Z,15.13
2019-02-27T23:46:20.385Z,12.27
2019-02-27T23:48:48.526Z,13.30
2019-02-27T23:51:17.015Z,12.93
2019-02-27T23:53:44.868Z,16.87
2019-02-27T23:56:19.331Z,16.27
2019-02-27T23:58:42.854Z,16.47
